Camilla, Georgia
Current Conditions -  °F | °C
As of 3:53 AM on Wednesday 28 Jan 2015 (Local Time) from KABY Reporting Station
Clear Clear  
Wind Chill: 33°   Ceiling: Unl
Heat Index: 33°   Visibility: 10mi
Dew Point: 29°   Wind: 0mph
Humidity: 85%   Direction: NA
Pressure: 30.17"   Gusts: NA
Location:  31.23°N, 84.2°W
Report Text: KABY 280853Z AUTO 00000KT 10SM CLR 01/M02 A3017 RMK AO2 SLP219 T00061017 53014 FZRANO
Loading
Personal Weather Stations






























Interactive Weather Map New forecast layout! Learn more

10-Day Weather Forecast

Advertisements
Track Severe Weather on mobile